Time;durP1;ratioP1;P1;durP2;ratioP2;P2;SDS_P1;SDS_P2;PMS_P1;PMS_P2;Temp;Humidity;BMP_temperature;BMP_pressure;BME280_temperature;BME280_humidity;BME280_pressure;Samples;Min_cycle;Max_cycle;Signal;HPM_P1;HPM_P2
2023/01/28 00:01:52;;;;;;;;;;;;;;;1.76;94.89;102814.91;5052432;28;19947;-51
2023/01/28 00:04:17;;;;;;;;;;;;;;;1.73;95.21;102812.59;5052641;28;19917;-49
2023/01/28 00:06:42;;;;;;;;;;;;;;;1.71;95.07;102820.97;5052483;28;20015;-48
2023/01/28 00:09:08;;;;;;;;;;;;;;;1.68;94.29;102818.66;5052361;28;19916;-48
2023/01/28 00:11:33;;;;;;;;;;;;;;;1.69;95.32;102820.34;5052567;28;20384;-52
2023/01/28 00:13:58;;;;;;;;;;;;;;;1.69;94.51;102817.63;5051903;28;20376;-51
2023/01/28 00:16:25;;;;;;;;;;;;;;;1.71;95.64;102822.88;5052248;28;19913;-52
2023/01/28 00:18:51;;;;;;;;;;;;;;;1.70;95.27;102830.19;5052296;28;19923;-46
2023/01/28 00:21:16;;;;;;;;;;;;;;;1.71;94.84;102828.31;5051998;28;19913;-49
2023/01/28 00:23:42;;;;;;;;;;;;;;;1.71;95.73;102831.88;5052098;28;19913;-47
2023/01/28 00:26:11;;;;;;;;;;;;;;;1.72;95.99;102827.28;5052121;28;19928;-46
2023/01/28 00:28:36;;;;;;;;;;;;;;;1.71;95.47;102820.97;5051754;28;19947;-45
2023/01/28 00:31:08;;;;;;;;;;;;;;;1.71;95.52;102823.69;5052236;28;19912;-48
2023/01/28 00:33:34;;;;;;;;;;;;;;;1.73;95.00;102830.84;5051991;28;19956;-46
2023/01/28 00:36:00;;;;;;;;;;;;;;;1.74;95.67;102838.00;5052044;28;19955;-48
2023/01/28 00:38:25;;;;;;;;;;;;;;;1.74;95.58;102830.66;5052139;28;19916;-48
2023/01/28 00:40:50;;;;;;;;;;;;;;;1.76;94.82;102833.19;5051520;28;19913;-46
2023/01/28 00:43:16;;;;;;;;;;;;;;;1.73;94.36;102837.16;5051762;28;20002;-49
2023/01/28 00:45:41;;;;;;;;;;;;;;;1.76;95.01;102841.38;5051844;28;19921;-48
2023/01/28 00:48:07;;;;;;;;;;;;;;;1.70;93.88;102830.19;5050432;28;19919;-48
2023/01/28 00:50:32;;;;;;;;;;;;;;;1.71;94.67;102831.03;5045963;28;20447;-47
2023/01/28 00:52:57;;;;;;;;;;;;;;;1.74;94.35;102830.66;5051756;28;19919;-47
2023/01/28 00:55:23;;;;;;;;;;;;;;;1.66;94.80;102834.38;5051693;28;19944;-46
2023/01/28 00:57:48;;;;;;;;;;;;;;;1.67;95.00;102849.69;5051501;28;19913;-49
2023/01/28 01:00:13;;;;;;;;;;;;;;;1.66;95.10;102844.41;5051513;28;19930;-50
2023/01/28 01:02:39;;;;;;;;;;;;;;;1.65;95.29;102840.88;5051512;28;19912;-48
2023/01/28 01:05:04;;;;;;;;;;;;;;;1.67;95.80;102840.66;5051492;28;20212;-50
2023/01/28 01:07:42;;;;;;;;;;;;;;;1.68;95.35;102837.75;5050182;28;20388;-52
2023/01/28 01:10:12;;;;;;;;;;;;;;;1.66;95.00;102841.69;5051592;28;19916;-46
2023/01/28 01:12:37;;;;;;;;;;;;;;;1.68;95.36;102834.16;5051300;28;19939;-47
2023/01/28 01:15:04;;;;;;;;;;;;;;;1.66;94.40;102836.22;5051622;28;20004;-47
2023/01/28 01:17:30;;;;;;;;;;;;;;;1.64;95.21;102836.44;5051493;28;19938;-47
2023/01/28 01:19:55;;;;;;;;;;;;;;;1.69;95.47;102841.31;5051588;28;19917;-47
2023/01/28 01:22:21;;;;;;;;;;;;;;;1.69;95.48;102839.44;5051205;28;19916;-47
2023/01/28 01:24:46;;;;;;;;;;;;;;;1.69;95.86;102842.16;5051348;28;20365;-48
2023/01/28 01:27:12;;;;;;;;;;;;;;;1.67;93.87;102827.88;5051361;28;19924;-46
2023/01/28 01:29:38;;;;;;;;;;;;;;;1.68;92.96;102834.16;5051089;28;20356;-46
2023/01/28 01:32:03;;;;;;;;;;;;;;;1.69;93.61;102828.53;5049777;28;19913;-48
2023/01/28 01:34:28;;;;;;;;;;;;;;;1.69;94.49;102819.47;5051336;28;19920;-47
2023/01/28 01:36:54;;;;;;;;;;;;;;;1.69;93.96;102825.78;5051209;28;19913;-48
2023/01/28 01:39:19;;;;;;;;;;;;;;;1.66;92.86;102836.22;5052001;28;20363;-49
2023/01/28 01:41:44;;;;;;;;;;;;;;;1.60;92.36;102845.22;5055566;28;19939;-47
2023/01/28 01:44:28;;;;;;;;;;;;;;;1.62;92.94;102840.41;5054118;28;19917;-47
2023/01/28 01:46:53;;;;;;;;;;;;;;;1.58;92.96;102830.94;5055539;28;19923;-45
2023/01/28 01:49:23;;;;;;;;;;;;;;;1.68;93.74;102845.06;5054126;28;19916;-50
2023/01/28 01:51:51;;;;;;;;;;;;;;;1.60;91.96;102842.50;5048962;28;20012;-46
2023/01/28 01:54:19;;;;;;;;;;;;;;;1.63;92.71;102839.38;5054684;28;19955;-49
2023/01/28 01:56:46;;;;;;;;;;;;;;;1.60;93.40;102839.75;5054724;28;20026;-47
2023/01/28 01:59:16;;;;;;;;;;;;;;;1.61;94.18;102842.28;5055270;28;19994;-46
2023/01/28 02:01:44;;;;;;;;;;;;;;;1.62;93.72;102843.97;5054132;28;19925;-47
2023/01/28 02:04:12;;;;;;;;;;;;;;;1.62;94.37;102846.69;5054492;28;19909;-47
2023/01/28 02:06:38;;;;;;;;;;;;;;;1.61;94.13;102844.19;5055054;28;19924;-48
2023/01/28 02:09:24;;;;;;;;;;;;;;;1.58;93.99;102848.16;5055115;28;19913;-48
2023/01/28 02:11:51;;;;;;;;;;;;;;;1.57;94.02;102838.28;5054298;28;19913;-52
2023/01/28 02:14:16;;;;;;;;;;;;;;;1.58;93.89;102844.56;5054637;28;19916;-50
2023/01/28 02:16:42;;;;;;;;;;;;;;;1.62;94.46;102848.59;5054803;28;20023;-50
2023/01/28 02:19:08;;;;;;;;;;;;;;;1.61;94.27;102850.47;5054291;28;19916;-50
2023/01/28 02:21:51;;;;;;;;;;;;;;;1.59;93.60;102847.13;5054556;28;19917;-48
2023/01/28 02:24:35;;;;;;;;;;;;;;;1.56;93.43;102850.22;5054103;28;19952;-52
2023/01/28 02:27:18;;;;;;;;;;;;;;;1.56;94.11;102847.50;5053357;28;19966;-50
2023/01/28 02:29:46;;;;;;;;;;;;;;;1.56;94.11;102839.31;5054456;28;19967;-49
2023/01/28 02:32:50;;;;;;;;;;;;;;;1.56;94.44;102848.31;5054736;28;19925;-49
2023/01/28 02:35:28;;;;;;;;;;;;;;;1.56;93.02;102842.03;5052065;28;19912;-47
2023/01/28 02:37:59;;;;;;;;;;;;;;;1.55;94.06;102845.81;5051803;28;19923;-46
2023/01/28 02:40:28;;;;;;;;;;;;;;;1.55;93.99;102843.94;5053547;28;19924;-48
2023/01/28 02:42:54;;;;;;;;;;;;;;;1.62;93.39;102840.41;5054451;28;19913;-51
2023/01/28 02:45:21;;;;;;;;;;;;;;;1.52;93.29;102840.72;5054436;28;20342;-51
2023/01/28 02:47:58;;;;;;;;;;;;;;;1.53;93.31;102836.97;5054189;28;19913;-49
2023/01/28 02:50:27;;;;;;;;;;;;;;;1.51;92.73;102844.53;5054053;28;19916;-50
2023/01/28 02:56:01;;;;;;;;;;;;;;;1.51;93.06;102844.53;5054547;28;20420;-47
2023/01/28 02:58:29;;;;;;;;;;;;;;;1.48;92.72;102840.28;5054044;28;19916;-47
2023/01/28 03:01:00;;;;;;;;;;;;;;;1.46;92.56;102846.97;5045908;28;19913;-49
2023/01/28 03:03:43;;;;;;;;;;;;;;;1.46;92.82;102852.44;5053706;28;19963;-47
2023/01/28 03:06:10;;;;;;;;;;;;;;;1.47;93.01;102857.69;5054004;28;19964;-48
2023/01/28 03:39:09;;;;;;;;;;;;;;;1.28;93.54;102867.38;5053280;28;19966;-50
2023/01/28 03:41:34;;;;;;;;;;;;;;;1.24;93.60;102866.06;5053253;28;20335;-49
2023/01/28 03:46:43;;;;;;;;;;;;;;;1.27;94.21;102856.66;5053501;28;20022;-50
2023/01/28 03:49:09;;;;;;;;;;;;;;;1.27;94.30;102852.03;5053123;28;20364;-48
2023/01/28 03:51:34;;;;;;;;;;;;;;;1.26;95.42;102847.63;5053039;28;20285;-50
2023/01/28 03:53:59;;;;;;;;;;;;;;;1.22;95.09;102858.09;5053087;28;20445;-48
2023/01/28 03:56:25;;;;;;;;;;;;;;;1.24;95.26;102863.34;5052993;28;19920;-50
2023/01/28 03:58:55;;;;;;;;;;;;;;;1.26;96.18;102864.00;5052996;28;19920;-46
2023/01/28 04:01:20;;;;;;;;;;;;;;;1.22;96.04;102869.00;5052895;28;19928;-48
2023/01/28 04:03:45;;;;;;;;;;;;;;;1.20;96.06;102870.22;5052127;28;20379;-45
2023/01/28 04:06:11;;;;;;;;;;;;;;;1.17;96.53;102873.31;5052656;28;20265;-46
2023/01/28 04:08:36;;;;;;;;;;;;;;;1.19;96.22;102883.00;5046456;28;19912;-51
2023/01/28 04:11:14;;;;;;;;;;;;;;;1.14;96.06;102888.19;5052528;28;20390;-47
2023/01/28 04:13:40;;;;;;;;;;;;;;;1.08;96.98;102880.78;5052736;28;19917;-48
2023/01/28 04:16:05;;;;;;;;;;;;;;;1.09;96.60;102880.59;5052515;28;20398;-49
2023/01/28 04:18:30;;;;;;;;;;;;;;;1.12;96.12;102879.34;5052519;28;19932;-46
2023/01/28 04:20:55;;;;;;;;;;;;;;;1.13;96.35;102880.22;5052641;28;19919;-48
2023/01/28 04:23:21;;;;;;;;;;;;;;;1.09;97.24;102886.06;5052585;28;19913;-49
2023/01/28 04:25:48;;;;;;;;;;;;;;;1.12;96.21;102883.97;5052417;28;19920;-48
2023/01/28 04:28:13;;;;;;;;;;;;;;;1.15;96.00;102876.25;5052509;28;20434;-48
2023/01/28 04:30:39;;;;;;;;;;;;;;;1.17;96.12;102876.91;5051260;28;19916;-46
2023/01/28 04:33:04;;;;;;;;;;;;;;;1.20;96.78;102876.50;5052504;28;19948;-48
2023/01/28 04:35:29;;;;;;;;;;;;;;;1.17;96.37;102876.06;5052421;28;19916;-47
2023/01/28 04:37:54;;;;;;;;;;;;;;;1.17;96.23;102868.75;5052595;28;20399;-46
2023/01/28 04:40:20;;;;;;;;;;;;;;;1.15;96.34;102872.66;5052521;28;19913;-49
2023/01/28 04:42:51;;;;;;;;;;;;;;;1.12;96.56;102871.19;5052471;28;19936;-48
2023/01/28 04:45:16;;;;;;;;;;;;;;;1.12;96.25;102873.91;5051053;28;19939;-48
2023/01/28 04:47:42;;;;;;;;;;;;;;;1.12;96.10;102871.19;5052100;28;20380;-46
2023/01/28 04:50:07;;;;;;;;;;;;;;;1.06;95.59;102870.06;5052111;28;19923;-48
2023/01/28 04:52:32;;;;;;;;;;;;;;;1.06;95.66;102874.69;5051936;28;20011;-49
2023/01/28 04:54:59;;;;;;;;;;;;;;;1.03;96.05;102884.09;5052089;28;20015;-46
2023/01/28 04:57:25;;;;;;;;;;;;;;;1.07;95.81;102885.38;5052065;28;19974;-46
2023/01/28 04:59:50;;;;;;;;;;;;;;;1.08;95.60;102887.09;5051933;28;20387;-47
2023/01/28 05:02:15;;;;;;;;;;;;;;;1.06;95.95;102891.03;5050578;28;19920;-45
2023/01/28 05:04:40;;;;;;;;;;;;;;;1.02;96.03;102892.44;5052051;28;19959;-46
2023/01/28 05:07:05;;;;;;;;;;;;;;;0.99;95.10;102881.94;5051980;28;19919;-47
2023/01/28 05:09:31;;;;;;;;;;;;;;;1.03;95.24;102886.81;5044219;28;20277;-46
2023/01/28 05:11:56;;;;;;;;;;;;;;;0.98;94.82;102886.53;5050067;28;19913;-47
2023/01/28 05:14:21;;;;;;;;;;;;;;;1.00;93.39;102891.78;5049087;28;19927;-47
2023/01/28 05:16:46;;;;;;;;;;;;;;;0.98;93.35;102896.59;5051633;28;20291;-46
2023/01/28 05:19:11;;;;;;;;;;;;;;;0.99;93.27;102901.03;5051501;28;19921;-46
2023/01/28 05:21:37;;;;;;;;;;;;;;;0.99;90.83;102901.03;5050892;28;19963;-47
2023/01/28 05:24:02;;;;;;;;;;;;;;;0.97;90.73;102893.03;5051617;28;19968;-47
2023/01/28 05:26:27;;;;;;;;;;;;;;;0.95;88.87;102895.09;5051536;28;19920;-47
2023/01/28 05:28:52;;;;;;;;;;;;;;;0.95;87.90;102891.53;5051335;28;19966;-50
2023/01/28 05:31:18;;;;;;;;;;;;;;;0.95;89.77;102894.25;5051390;28;20364;-49
2023/01/28 05:33:43;;;;;;;;;;;;;;;0.93;88.61;102892.56;5051268;28;19991;-46
2023/01/28 05:36:08;;;;;;;;;;;;;;;0.92;89.77;102879.13;5050200;28;19912;-46
2023/01/28 05:38:33;;;;;;;;;;;;;;;0.95;89.55;102877.91;5051471;28;19924;-46
2023/01/28 05:40:59;;;;;;;;;;;;;;;0.96;90.96;102877.69;5051267;28;19939;-50
2023/01/28 05:43:24;;;;;;;;;;;;;;;0.96;91.67;102883.16;5051269;28;19917;-45
2023/01/28 05:45:49;;;;;;;;;;;;;;;0.96;91.00;102882.31;5051613;28;19917;-49
2023/01/28 05:48:15;;;;;;;;;;;;;;;0.95;90.86;102872.44;5051420;28;20398;-47
2023/01/28 05:50:40;;;;;;;;;;;;;;;0.97;90.97;102886.75;5050931;28;20011;-49
2023/01/28 05:53:06;;;;;;;;;;;;;;;0.96;89.84;102883.16;5051214;28;19985;-47
2023/01/28 05:55:31;;;;;;;;;;;;;;;0.95;88.58;102894.25;5050453;28;20015;-48
2023/01/28 05:57:56;;;;;;;;;;;;;;;0.93;89.23;102892.56;5049999;28;20387;-50
2023/01/28 06:00:22;;;;;;;;;;;;;;;0.92;90.64;102890.03;5032226;28;19916;-51
2023/01/28 06:02:49;;;;;;;;;;;;;;;0.91;90.53;102889.19;5050117;28;19913;-50
2023/01/28 06:05:14;;;;;;;;;;;;;;;0.88;89.56;102894.16;5040925;28;19920;-50
2023/01/28 06:07:43;;;;;;;;;;;;;;;0.84;87.64;102896.44;5050789;28;19913;-48
2023/01/28 06:10:08;;;;;;;;;;;;;;;0.80;88.52;102895.13;5050906;28;19913;-46
2023/01/28 06:12:33;;;;;;;;;;;;;;;0.80;89.08;102899.72;5051224;28;19913;-47
2023/01/28 06:14:59;;;;;;;;;;;;;;;0.74;86.33;102899.47;5050615;28;19924;-46
2023/01/28 06:17:24;;;;;;;;;;;;;;;0.76;88.27;102902.00;5050701;28;19990;-47
2023/01/28 06:19:49;;;;;;;;;;;;;;;0.88;89.71;102900.47;5049831;28;20360;-49
2023/01/28 06:22:14;;;;;;;;;;;;;;;0.83;88.44;102902.09;5050939;28;19913;-49
2023/01/28 06:24:39;;;;;;;;;;;;;;;0.76;87.21;102897.38;5049556;28;19919;-48
2023/01/28 06:27:05;;;;;;;;;;;;;;;0.78;89.02;102895.31;5054347;28;19919;-46
2023/01/28 06:29:30;;;;;;;;;;;;;;;0.77;88.04;102890.88;5053864;28;19952;-49
2023/01/28 06:31:55;;;;;;;;;;;;;;;0.75;88.44;102894.84;5053088;28;20281;-49
2023/01/28 06:34:20;;;;;;;;;;;;;;;0.71;86.16;102904.44;5053410;28;19923;-50
2023/01/28 06:36:45;;;;;;;;;;;;;;;0.75;88.84;102903.03;5051389;28;19912;-50
2023/01/28 06:39:11;;;;;;;;;;;;;;;0.73;89.00;102896.91;5052615;28;19917;-50
2023/01/28 06:41:36;;;;;;;;;;;;;;;0.67;85.86;102909.41;5052144;28;19912;-47
2023/01/28 06:44:01;;;;;;;;;;;;;;;0.63;85.90;102913.56;5051053;28;20015;-48
2023/01/28 06:46:27;;;;;;;;;;;;;;;0.63;86.63;102916.28;5051978;28;20269;-50
2023/01/28 06:48:52;;;;;;;;;;;;;;;0.71;88.86;102910.72;5050785;28;19951;-46
2023/01/28 06:51:17;;;;;;;;;;;;;;;0.69;88.48;102907.34;5052005;28;19913;-47
2023/01/28 06:53:42;;;;;;;;;;;;;;;0.69;86.41;102906.50;5052230;28;19917;-47
2023/01/28 06:56:07;;;;;;;;;;;;;;;0.65;86.33;102908.78;5052139;28;19920;-47
2023/01/28 06:58:33;;;;;;;;;;;;;;;0.63;85.44;102910.84;5050798;28;20338;-47
2023/01/28 07:00:58;;;;;;;;;;;;;;;0.65;86.40;102916.09;5043058;28;19912;-46
2023/01/28 07:03:23;;;;;;;;;;;;;;;0.66;87.10;102918.63;5051885;28;19917;-47
2023/01/28 07:05:49;;;;;;;;;;;;;;;0.63;86.21;102921.72;5051670;28;19936;-48
2023/01/28 07:08:14;;;;;;;;;;;;;;;0.60;85.38;102922.97;5051976;28;19985;-48
2023/01/28 07:10:39;;;;;;;;;;;;;;;0.61;85.80;102918.34;5050459;28;19913;-46
2023/01/28 07:13:04;;;;;;;;;;;;;;;0.58;86.14;102921.44;5051447;28;20007;-47
2023/01/28 07:15:29;;;;;;;;;;;;;;;0.60;86.39;102922.09;5051764;28;20349;-48
2023/01/28 07:17:55;;;;;;;;;;;;;;;0.64;86.10;102926.16;5051536;28;20451;-46
2023/01/28 07:20:21;;;;;;;;;;;;;;;0.58;85.50;102929.59;5051882;28;20457;-47
2023/01/28 07:22:46;;;;;;;;;;;;;;;0.58;85.74;102937.78;5050187;28;20429;-46
2023/01/28 07:25:12;;;;;;;;;;;;;;;0.56;84.83;102943.41;5051731;28;19970;-48
2023/01/28 07:27:37;;;;;;;;;;;;;;;0.53;83.11;102945.69;5051754;28;20001;-44
2023/01/28 07:30:03;;;;;;;;;;;;;;;0.56;85.56;102948.88;5051952;28;19960;-50
2023/01/28 07:32:28;;;;;;;;;;;;;;;0.56;85.24;102953.47;5048430;28;20332;-48
2023/01/28 07:34:53;;;;;;;;;;;;;;;0.56;85.31;102951.59;5050954;28;19912;-46
2023/01/28 07:37:19;;;;;;;;;;;;;;;0.56;86.33;102962.50;5050389;28;19913;-47
2023/01/28 07:39:44;;;;;;;;;;;;;;;0.58;86.05;102963.16;5049839;28;20012;-48
2023/01/28 07:42:09;;;;;;;;;;;;;;;0.54;84.98;102970.00;5050132;28;20447;-48
2023/01/28 07:44:35;;;;;;;;;;;;;;;0.54;86.15;102963.72;5051340;28;20435;-48
2023/01/28 07:47:01;;;;;;;;;;;;;;;0.54;85.98;102964.53;5050668;28;20423;-49
2023/01/28 07:49:26;;;;;;;;;;;;;;;0.53;86.29;102964.75;5033166;28;19927;-51
2023/01/28 07:51:51;;;;;;;;;;;;;;;0.54;85.65;102961.00;5051324;28;20023;-50
2023/01/28 07:54:16;;;;;;;;;;;;;;;0.55;85.82;102962.69;5051284;28;19923;-49
2023/01/28 07:56:42;;;;;;;;;;;;;;;0.51;84.45;102964.06;5042354;28;19987;-49
2023/01/28 07:59:07;;;;;;;;;;;;;;;0.51;84.86;102964.94;5051893;28;20364;-46
2023/01/28 08:01:32;;;;;;;;;;;;;;;0.50;83.80;102971.41;5052301;28;19923;-47
2023/01/28 08:03:57;;;;;;;;;;;;;;;0.52;85.92;102966.59;5052194;28;20012;-50
2023/01/28 08:06:22;;;;;;;;;;;;;;;0.51;83.49;102962.22;5052196;28;20443;-47
2023/01/28 08:08:48;;;;;;;;;;;;;;;0.55;85.13;102965.41;5051777;28;19920;-48
2023/01/28 08:11:13;;;;;;;;;;;;;;;0.55;84.67;102968.13;5052481;28;19971;-47
2023/01/28 08:13:38;;;;;;;;;;;;;;;0.58;84.93;102978.63;5052325;28;20023;-48
2023/01/28 08:16:04;;;;;;;;;;;;;;;0.53;83.44;102973.75;5052250;28;19932;-46
2023/01/28 08:18:29;;;;;;;;;;;;;;;0.54;84.77;102985.50;5052373;28;19949;-46
2023/01/28 08:20:55;;;;;;;;;;;;;;;0.59;85.25;102991.22;5052112;28;20041;-50
2023/01/28 08:23:20;;;;;;;;;;;;;;;0.64;85.65;102982.50;5049121;28;19917;-48
2023/01/28 08:25:46;;;;;;;;;;;;;;;0.64;83.04;102994.25;5052815;28;19921;-46
2023/01/28 08:28:12;;;;;;;;;;;;;;;0.67;83.35;103003.91;5052395;28;20426;-52
2023/01/28 08:30:37;;;;;;;;;;;;;;;0.69;83.70;103002.69;5052449;28;19912;-49
2023/01/28 08:33:04;;;;;;;;;;;;;;;0.72;83.73;103002.34;5051192;28;19913;-48
2023/01/28 08:35:29;;;;;;;;;;;;;;;0.74;83.45;102999.41;5052328;28;19913;-47
2023/01/28 08:37:54;;;;;;;;;;;;;;;0.76;82.79;103005.53;5052210;28;19927;-48
2023/01/28 08:40:20;;;;;;;;;;;;;;;0.77;83.50;103007.22;5051673;28;20442;-44
2023/01/28 08:42:45;;;;;;;;;;;;;;;0.83;84.59;103001.00;5051162;28;20369;-44
2023/01/28 08:45:11;;;;;;;;;;;;;;;0.87;83.84;103007.78;5051422;28;19916;-46
2023/01/28 08:47:45;;;;;;;;;;;;;;;0.91;84.72;103013.72;5051073;28;19916;-45
2023/01/28 08:50:11;;;;;;;;;;;;;;;0.88;82.55;103004.03;5050972;28;19912;-45
2023/01/28 08:52:36;;;;;;;;;;;;;;;0.93;84.69;103004.31;5043978;28;20332;-46
2023/01/28 08:55:01;;;;;;;;;;;;;;;0.94;84.17;103016.06;5050945;28;19970;-45
2023/01/28 08:57:26;;;;;;;;;;;;;;;0.97;84.64;103023.03;5049342;28;19952;-46
2023/01/28 08:59:51;;;;;;;;;;;;;;;1.01;85.38;103022.47;5051416;28;19999;-47
2023/01/28 09:02:17;;;;;;;;;;;;;;;1.05;85.97;103018.31;5051425;28;19916;-47
2023/01/28 09:04:42;;;;;;;;;;;;;;;1.05;84.88;103018.31;5052005;28;19921;-47
2023/01/28 09:07:07;;;;;;;;;;;;;;;1.05;83.68;103009.28;5051360;28;20383;-45
2023/01/28 09:09:32;;;;;;;;;;;;;;;1.04;84.26;103029.41;5050792;28;19920;-48
2023/01/28 09:11:58;;;;;;;;;;;;;;;0.96;82.72;103034.94;5050617;28;19917;-49
2023/01/28 09:14:23;;;;;;;;;;;;;;;0.93;84.28;103028.00;5050728;28;20042;-49
2023/01/28 09:16:48;;;;;;;;;;;;;;;0.93;83.98;103033.47;5051612;28;20014;-47
2023/01/28 09:19:13;;;;;;;;;;;;;;;0.95;84.17;103044.16;5050117;28;20253;-49
2023/01/28 09:21:39;;;;;;;;;;;;;;;0.93;84.08;103045.19;5051182;28;20005;-49
2023/01/28 09:24:04;;;;;;;;;;;;;;;0.94;85.75;103043.31;5050777;28;19952;-48
2023/01/28 09:26:33;;;;;;;;;;;;;;;0.89;85.56;103038.44;5050073;28;19917;-46
2023/01/28 09:28:58;;;;;;;;;;;;;;;0.96;85.01;103049.41;5050560;28;19913;-49
2023/01/28 09:31:23;;;;;;;;;;;;;;;1.04;85.17;103052.03;5050772;28;20269;-50
2023/01/28 09:33:55;;;;;;;;;;;;;;;1.00;85.48;103041.72;5051173;28;20019;-47
2023/01/28 09:36:20;;;;;;;;;;;;;;;0.98;85.70;103049.25;5050776;28;19917;-46
2023/01/28 09:38:45;;;;;;;;;;;;;;;0.94;84.28;103056.97;5051059;28;19913;-49
2023/01/28 09:41:31;;;;;;;;;;;;;;;0.93;85.97;103067.00;5051766;28;19912;-49
2023/01/28 09:43:58;;;;;;;;;;;;;;;0.99;84.96;103059.94;5050589;28;20268;-49
2023/01/28 09:46:28;;;;;;;;;;;;;;;1.03;85.30;103053.09;5051542;28;19918;-46
2023/01/28 09:48:53;;;;;;;;;;;;;;;1.06;83.86;103058.16;5047295;28;20372;-52
2023/01/28 09:51:40;;;;;;;;;;;;;;;1.06;84.56;103055.44;5051677;28;19912;-52
2023/01/28 09:54:13;;;;;;;;;;;;;;;1.08;84.43;103064.28;5051547;28;19919;-47
2023/01/28 09:56:42;;;;;;;;;;;;;;;0.98;82.54;103066.44;5051688;28;19919;-48
2023/01/28 09:59:18;;;;;;;;;;;;;;;0.96;83.24;103049.41;5051094;28;19913;-45
2023/01/28 10:01:47;;;;;;;;;;;;;;;1.00;82.78;103068.97;5054154;28;19916;-47
2023/01/28 10:04:31;;;;;;;;;;;;;;;1.13;83.63;103082.81;5055550;28;20014;-47
2023/01/28 10:06:59;;;;;;;;;;;;;;;0.94;81.91;103070.59;5055457;28;20280;-49
2023/01/28 10:09:37;;;;;;;;;;;;;;;0.91;82.78;103069.06;5055397;28;19970;-48
2023/01/28 10:12:13;;;;;;;;;;;;;;;0.89;82.01;103078.47;5055528;28;19916;-45
2023/01/28 10:14:44;;;;;;;;;;;;;;;0.89;83.27;103076.59;5055735;28;19975;-47
2023/01/28 10:17:18;;;;;;;;;;;;;;;0.85;82.59;103085.31;5055262;28;19913;-49
2023/01/28 10:19:57;;;;;;;;;;;;;;;0.87;83.50;103080.50;5055226;28;20003;-50
2023/01/28 10:22:25;;;;;;;;;;;;;;;0.98;83.58;103077.34;5054852;28;20000;-48
2023/01/28 10:24:57;;;;;;;;;;;;;;;0.93;83.68;103077.06;5054879;28;20011;-45
2023/01/28 10:27:23;;;;;;;;;;;;;;;0.90;83.29;103080.16;5055115;28;19938;-46
2023/01/28 10:29:49;;;;;;;;;;;;;;;0.91;83.75;103079.97;5055043;28;19913;-47
2023/01/28 10:32:15;;;;;;;;;;;;;;;0.93;83.38;103075.16;5054863;28;19920;-47
2023/01/28 10:34:40;;;;;;;;;;;;;;;0.93;83.95;103068.88;5054873;28;19913;-48
2023/01/28 10:37:05;;;;;;;;;;;;;;;0.98;84.67;103073.78;5054772;28;20333;-46
2023/01/28 10:39:30;;;;;;;;;;;;;;;0.99;83.79;103078.19;5054788;28;19945;-44
2023/01/28 10:41:55;;;;;;;;;;;;;;;1.03;84.07;103074.06;5054752;28;20295;-53
2023/01/28 10:44:29;;;;;;;;;;;;;;;0.96;82.42;103081.28;5054835;28;20356;-49
2023/01/28 10:46:56;;;;;;;;;;;;;;;1.00;82.71;103074.41;5055124;28;20008;-48
2023/01/28 10:49:25;;;;;;;;;;;;;;;0.98;83.25;103071.88;5054807;28;19919;-47
2023/01/28 10:51:50;;;;;;;;;;;;;;;0.98;82.13;103069.16;5054731;28;19913;-48
2023/01/28 10:54:19;;;;;;;;;;;;;;;1.03;83.04;103076.78;5054223;28;19918;-48
2023/01/28 10:56:46;;;;;;;;;;;;;;;1.00;82.52;103066.25;5054377;28;19956;-46
2023/01/28 10:59:20;;;;;;;;;;;;;;;1.06;83.58;103069.06;5054322;28;19916;-45
2023/01/28 11:01:50;;;;;;;;;;;;;;;1.04;83.22;103068.41;5054349;28;20372;-46
2023/01/28 11:04:26;;;;;;;;;;;;;;;0.99;82.83;103070.84;5054241;28;19913;-48
2023/01/28 11:06:56;;;;;;;;;;;;;;;1.00;83.75;103066.25;5054599;28;19935;-50
2023/01/28 11:09:30;;;;;;;;;;;;;;;1.14;82.57;103072.72;5054431;28;20004;-49
2023/01/28 11:11:55;;;;;;;;;;;;;;;1.09;82.88;103065.97;5051758;28;19921;-45
2023/01/28 11:14:22;;;;;;;;;;;;;;;1.02;82.94;103056.88;5052356;28;20310;-45
2023/01/28 11:16:48;;;;;;;;;;;;;;;1.04;83.14;103052.03;5054015;28;19958;-46
2023/01/28 11:19:14;;;;;;;;;;;;;;;1.17;83.19;103047.81;5054076;28;19917;-50
2023/01/28 11:21:39;;;;;;;;;;;;;;;1.19;82.46;103059.41;5053937;28;19919;-50
2023/01/28 11:24:20;;;;;;;;;;;;;;;1.19;82.32;103052.03;5054045;28;20417;-47
2023/01/28 11:26:48;;;;;;;;;;;;;;;1.31;83.31;103035.22;5054134;28;19951;-50
2023/01/28 11:29:30;;;;;;;;;;;;;;;1.41;83.14;103027.59;5053822;28;19994;-46
2023/01/28 11:31:55;;;;;;;;;;;;;;;1.53;80.80;103036.97;5046036;28;19913;-47
2023/01/28 11:34:24;;;;;;;;;;;;;;;1.58;81.80;103025.50;5053900;28;19913;-45
2023/01/28 11:37:02;;;;;;;;;;;;;;;1.71;82.04;103031.09;5052829;28;19963;-50
2023/01/28 11:39:28;;;;;;;;;;;;;;;1.86;82.79;103022.84;5046164;28;20011;-49
2023/01/28 11:41:53;;;;;;;;;;;;;;;1.87;79.17;103023.72;5053291;28;19921;-47
2023/01/28 11:44:22;;;;;;;;;;;;;;;1.77;79.07;103015.81;5053344;28;19959;-46
2023/01/28 11:46:57;;;;;;;;;;;;;;;1.85;81.68;103006.69;5053446;28;19971;-51
2023/01/28 11:49:41;;;;;;;;;;;;;;;2.01;82.22;102992.75;5053278;28;19969;-48
2023/01/28 11:52:06;;;;;;;;;;;;;;;2.07;80.33;102982.94;5053608;28;19919;-47
2023/01/28 11:54:44;;;;;;;;;;;;;;;2.10;81.00;102970.78;5053076;28;19913;-50
2023/01/28 11:57:15;;;;;;;;;;;;;;;2.15;79.57;102960.13;5053267;28;20296;-48
2023/01/28 12:00:08;;;;;;;;;;;;;;;2.14;82.28;102947.50;5053271;28;20371;-46
2023/01/28 12:02:39;;;;;;;;;;;;;;;2.12;81.13;102925.88;5053454;28;19917;-49
2023/01/28 12:05:15;;;;;;;;;;;;;;;2.08;82.21;102935.50;5053258;28;19917;-47
2023/01/28 12:07:59;;;;;;;;;;;;;;;2.10;82.37;102932.56;5053465;28;19913;-46
2023/01/28 12:10:37;;;;;;;;;;;;;;;2.20;82.66;102934.97;5051686;28;19917;-46
2023/01/28 12:13:05;;;;;;;;;;;;;;;2.35;82.78;102927.50;5053211;28;19919;-49
2023/01/28 12:15:30;;;;;;;;;;;;;;;2.47;81.27;102916.84;5052950;28;19921;-45
2023/01/28 12:18:06;;;;;;;;;;;;;;;2.48;81.66;102921.28;5052879;28;19922;-47
2023/01/28 12:20:31;;;;;;;;;;;;;;;2.40;79.31;102922.28;5052841;28;19935;-49
2023/01/28 12:23:15;;;;;;;;;;;;;;;2.30;78.69;102938.19;5052596;28;20338;-45
2023/01/28 12:25:49;;;;;;;;;;;;;;;2.17;79.32;102945.22;5052839;28;19912;-47
2023/01/28 12:28:23;;;;;;;;;;;;;;;2.19;81.93;102942.28;5052667;28;20224;-51
2023/01/28 12:30:57;;;;;;;;;;;;;;;2.26;80.26;102943.22;5051503;28;20430;-47
2023/01/28 12:33:41;;;;;;;;;;;;;;;2.46;81.65;102958.88;5045858;28;19923;-49
2023/01/28 12:36:13;;;;;;;;;;;;;;;2.65;81.10;102954.59;5051980;28;19912;-51
2023/01/28 12:38:47;;;;;;;;;;;;;;;2.78;81.96;102968.34;5052596;28;19912;-44
2023/01/28 12:41:15;;;;;;;;;;;;;;;2.90;78.40;102976.84;5052703;28;19944;-47
2023/01/28 12:43:52;;;;;;;;;;;;;;;2.87;78.51;102970.94;5052265;28;20372;-50
2023/01/28 12:46:33;;;;;;;;;;;;;;;2.86;78.95;102978.25;5051483;28;19952;-49
2023/01/28 12:49:02;;;;;;;;;;;;;;;2.80;76.33;102968.16;5050532;28;19963;-46
2023/01/28 12:51:32;;;;;;;;;;;;;;;2.78;77.99;102962.88;5048183;28;20003;-52
2023/01/28 12:54:01;;;;;;;;;;;;;;;2.74;76.73;102975.25;5047550;28;19912;-46
2023/01/28 12:56:32;;;;;;;;;;;;;;;2.68;78.73;102972.47;5051548;28;19943;-48
2023/01/28 12:59:01;;;;;;;;;;;;;;;2.58;81.07;102970.13;5051809;28;19923;-47
2023/01/28 13:01:49;;;;;;;;;;;;;;;2.55;79.64;102954.94;5051630;28;20019;-51
2023/01/28 13:04:21;;;;;;;;;;;;;;;2.57;79.99;102966.53;5045791;28;19913;-49
2023/01/28 13:06:48;;;;;;;;;;;;;;;2.64;82.32;102961.97;5051405;28;20025;-46
2023/01/28 13:09:16;;;;;;;;;;;;;;;2.75;79.13;102979.69;5050611;28;19913;-47
2023/01/28 13:11:42;;;;;;;;;;;;;;;2.81;74.77;102973.41;5051270;28;19913;-46
2023/01/28 13:14:09;;;;;;;;;;;;;;;2.80;76.97;102965.41;5051583;28;19928;-47
2023/01/28 13:16:34;;;;;;;;;;;;;;;2.83;80.61;102954.09;5051531;28;19917;-46
2023/01/28 13:19:04;;;;;;;;;;;;;;;2.92;80.58;102966.53;5051242;28;19913;-45
2023/01/28 13:21:32;;;;;;;;;;;;;;;3.02;74.97;102965.31;5051463;28;19939;-49
2023/01/28 13:24:00;;;;;;;;;;;;;;;3.03;79.05;102950.56;5051517;28;19956;-47
2023/01/28 13:26:27;;;;;;;;;;;;;;;3.03;75.30;102956.91;5051089;28;20391;-49
2023/01/28 13:28:53;;;;;;;;;;;;;;;3.02;78.72;102943.44;5044432;28;20000;-47